sensor_id;sensor_type;location;lat;lon;timestamp;P1;durP1;ratioP1;P2;durP2;ratioP2
24163;SDS011;12319;49.204;8.116;2023-04-24T00:01:40;4.50;;;3.30;;
24163;SDS011;12319;49.204;8.116;2023-04-24T00:04:05;5.47;;;3.30;;
24163;SDS011;12319;49.204;8.116;2023-04-24T00:06:32;6.18;;;3.78;;
24163;SDS011;12319;49.204;8.116;2023-04-24T00:09:01;4.80;;;3.30;;
24163;SDS011;12319;49.204;8.116;2023-04-24T00:11:27;4.65;;;3.40;;
24163;SDS011;12319;49.204;8.116;2023-04-24T00:13:53;4.35;;;3.10;;
24163;SDS011;12319;49.204;8.116;2023-04-24T00:16:19;4.50;;;3.17;;
24163;SDS011;12319;49.204;8.116;2023-04-24T00:18:45;5.80;;;3.33;;
24163;SDS011;12319;49.204;8.116;2023-04-24T00:21:12;4.65;;;3.03;;
24163;SDS011;12319;49.204;8.116;2023-04-24T00:23:38;4.30;;;3.27;;
24163;SDS011;12319;49.204;8.116;2023-04-24T00:26:04;4.38;;;3.22;;
24163;SDS011;12319;49.204;8.116;2023-04-24T00:28:29;4.30;;;3.20;;
24163;SDS011;12319;49.204;8.116;2023-04-24T00:30:56;4.78;;;3.50;;
24163;SDS011;12319;49.204;8.116;2023-04-24T00:33:22;4.40;;;3.20;;
24163;SDS011;12319;49.204;8.116;2023-04-24T00:35:47;4.90;;;3.30;;
24163;SDS011;12319;49.204;8.116;2023-04-24T00:38:13;4.40;;;3.20;;
24163;SDS011;12319;49.204;8.116;2023-04-24T00:40:38;4.60;;;3.50;;
24163;SDS011;12319;49.204;8.116;2023-04-24T00:43:04;4.22;;;3.03;;
24163;SDS011;12319;49.204;8.116;2023-04-24T00:45:30;4.50;;;3.30;;
24163;SDS011;12319;49.204;8.116;2023-04-24T00:47:56;4.30;;;3.20;;
24163;SDS011;12319;49.204;8.116;2023-04-24T00:50:23;4.47;;;3.20;;
24163;SDS011;12319;49.204;8.116;2023-04-24T00:52:49;4.30;;;3.10;;
24163;SDS011;12319;49.204;8.116;2023-04-24T00:55:14;4.70;;;3.30;;
24163;SDS011;12319;49.204;8.116;2023-04-24T00:57:41;5.22;;;3.38;;
24163;SDS011;12319;49.204;8.116;2023-04-24T01:00:06;5.27;;;3.50;;
24163;SDS011;12319;49.204;8.116;2023-04-24T01:02:35;4.97;;;3.50;;
24163;SDS011;12319;49.204;8.116;2023-04-24T01:05:04;4.50;;;3.30;;
24163;SDS011;12319;49.204;8.116;2023-04-24T01:07:32;4.50;;;3.05;;
24163;SDS011;12319;49.204;8.116;2023-04-24T01:09:58;5.57;;;3.30;;
24163;SDS011;12319;49.204;8.116;2023-04-24T01:12:23;4.82;;;3.38;;
24163;SDS011;12319;49.204;8.116;2023-04-24T01:14:49;5.23;;;3.23;;
24163;SDS011;12319;49.204;8.116;2023-04-24T01:17:14;4.87;;;3.77;;
24163;SDS011;12319;49.204;8.116;2023-04-24T01:19:40;5.30;;;3.45;;
24163;SDS011;12319;49.204;8.116;2023-04-24T01:22:15;5.10;;;3.30;;
24163;SDS011;12319;49.204;8.116;2023-04-24T01:24:42;4.50;;;3.25;;
24163;SDS011;12319;49.204;8.116;2023-04-24T01:27:08;5.00;;;3.40;;
24163;SDS011;12319;49.204;8.116;2023-04-24T01:29:35;4.72;;;3.60;;
24163;SDS011;12319;49.204;8.116;2023-04-24T01:32:01;6.50;;;3.58;;
24163;SDS011;12319;49.204;8.116;2023-04-24T01:34:28;4.30;;;3.00;;
24163;SDS011;12319;49.204;8.116;2023-04-24T01:36:54;5.68;;;3.60;;
24163;SDS011;12319;49.204;8.116;2023-04-24T01:39:21;4.10;;;3.00;;
24163;SDS011;12319;49.204;8.116;2023-04-24T01:41:48;5.10;;;3.50;;
24163;SDS011;12319;49.204;8.116;2023-04-24T01:44:14;4.85;;;3.30;;
24163;SDS011;12319;49.204;8.116;2023-04-24T01:46:40;5.05;;;3.67;;
24163;SDS011;12319;49.204;8.116;2023-04-24T01:49:06;4.25;;;2.70;;
24163;SDS011;12319;49.204;8.116;2023-04-24T01:51:32;5.03;;;3.50;;
24163;SDS011;12319;49.204;8.116;2023-04-24T01:53:57;4.60;;;3.20;;
24163;SDS011;12319;49.204;8.116;2023-04-24T01:56:23;4.40;;;3.30;;
24163;SDS011;12319;49.204;8.116;2023-04-24T01:58:50;5.00;;;3.60;;
24163;SDS011;12319;49.204;8.116;2023-04-24T02:01:23;4.80;;;3.47;;
24163;SDS011;12319;49.204;8.116;2023-04-24T02:03:49;5.32;;;3.42;;
24163;SDS011;12319;49.204;8.116;2023-04-24T02:06:14;4.70;;;3.20;;
24163;SDS011;12319;49.204;8.116;2023-04-24T02:08:40;4.50;;;3.05;;
24163;SDS011;12319;49.204;8.116;2023-04-24T02:11:06;5.67;;;3.70;;
24163;SDS011;12319;49.204;8.116;2023-04-24T02:13:33;5.43;;;3.95;;
24163;SDS011;12319;49.204;8.116;2023-04-24T02:15:58;5.63;;;3.60;;
24163;SDS011;12319;49.204;8.116;2023-04-24T02:18:24;4.35;;;2.92;;
24163;SDS011;12319;49.204;8.116;2023-04-24T02:20:50;4.33;;;3.30;;
24163;SDS011;12319;49.204;8.116;2023-04-24T02:23:15;4.70;;;3.40;;
24163;SDS011;12319;49.204;8.116;2023-04-24T02:25:41;4.60;;;3.28;;
24163;SDS011;12319;49.204;8.116;2023-04-24T02:28:06;5.13;;;3.60;;
24163;SDS011;12319;49.204;8.116;2023-04-24T02:30:32;4.40;;;3.30;;
24163;SDS011;12319;49.204;8.116;2023-04-24T02:32:58;4.83;;;3.43;;
24163;SDS011;12319;49.204;8.116;2023-04-24T02:35:23;4.30;;;3.10;;
24163;SDS011;12319;49.204;8.116;2023-04-24T02:37:49;4.30;;;3.22;;
24163;SDS011;12319;49.204;8.116;2023-04-24T02:40:14;4.10;;;2.97;;
24163;SDS011;12319;49.204;8.116;2023-04-24T02:42:40;4.80;;;3.63;;
24163;SDS011;12319;49.204;8.116;2023-04-24T02:45:05;4.75;;;3.58;;
24163;SDS011;12319;49.204;8.116;2023-04-24T02:47:31;4.60;;;3.50;;
24163;SDS011;12319;49.204;8.116;2023-04-24T02:49:57;4.20;;;3.03;;
24163;SDS011;12319;49.204;8.116;2023-04-24T02:52:23;4.50;;;3.40;;
24163;SDS011;12319;49.204;8.116;2023-04-24T02:54:48;4.40;;;3.30;;
24163;SDS011;12319;49.204;8.116;2023-04-24T02:57:14;3.87;;;2.83;;
24163;SDS011;12319;49.204;8.116;2023-04-24T02:59:40;4.50;;;3.50;;
24163;SDS011;12319;49.204;8.116;2023-04-24T03:02:05;4.50;;;3.37;;
24163;SDS011;12319;49.204;8.116;2023-04-24T03:04:31;4.33;;;3.23;;
24163;SDS011;12319;49.204;8.116;2023-04-24T03:06:57;4.40;;;3.20;;
24163;SDS011;12319;49.204;8.116;2023-04-24T03:09:22;4.40;;;3.27;;
24163;SDS011;12319;49.204;8.116;2023-04-24T03:11:48;4.45;;;3.17;;
24163;SDS011;12319;49.204;8.116;2023-04-24T03:14:14;4.72;;;3.50;;
24163;SDS011;12319;49.204;8.116;2023-04-24T03:16:40;4.27;;;3.17;;
24163;SDS011;12319;49.204;8.116;2023-04-24T03:19:06;4.38;;;3.28;;
24163;SDS011;12319;49.204;8.116;2023-04-24T03:21:31;4.30;;;3.20;;
24163;SDS011;12319;49.204;8.116;2023-04-24T03:23:58;4.38;;;3.20;;
24163;SDS011;12319;49.204;8.116;2023-04-24T03:26:23;4.50;;;3.50;;
24163;SDS011;12319;49.204;8.116;2023-04-24T03:28:49;4.50;;;3.30;;
24163;SDS011;12319;49.204;8.116;2023-04-24T03:31:15;4.47;;;3.40;;
24163;SDS011;12319;49.204;8.116;2023-04-24T03:33:41;4.13;;;3.17;;
24163;SDS011;12319;49.204;8.116;2023-04-24T03:36:07;4.60;;;3.50;;
24163;SDS011;12319;49.204;8.116;2023-04-24T03:38:32;4.30;;;3.30;;
24163;SDS011;12319;49.204;8.116;2023-04-24T03:40:58;4.40;;;3.40;;
24163;SDS011;12319;49.204;8.116;2023-04-24T03:43:23;4.63;;;3.40;;
24163;SDS011;12319;49.204;8.116;2023-04-24T03:45:49;4.53;;;3.50;;
24163;SDS011;12319;49.204;8.116;2023-04-24T03:48:14;4.63;;;3.63;;
24163;SDS011;12319;49.204;8.116;2023-04-24T03:50:40;4.40;;;3.40;;
24163;SDS011;12319;49.204;8.116;2023-04-24T03:53:05;4.60;;;3.60;;
24163;SDS011;12319;49.204;8.116;2023-04-24T03:55:31;4.77;;;3.47;;
24163;SDS011;12319;49.204;8.116;2023-04-24T03:57:56;4.63;;;3.40;;
24163;SDS011;12319;49.204;8.116;2023-04-24T04:00:22;4.50;;;3.33;;
24163;SDS011;12319;49.204;8.116;2023-04-24T04:02:48;4.80;;;3.90;;
24163;SDS011;12319;49.204;8.116;2023-04-24T04:05:13;4.72;;;3.70;;
24163;SDS011;12319;49.204;8.116;2023-04-24T04:07:39;4.93;;;4.00;;
24163;SDS011;12319;49.204;8.116;2023-04-24T04:10:04;4.83;;;3.97;;
24163;SDS011;12319;49.204;8.116;2023-04-24T04:12:32;4.57;;;3.78;;
24163;SDS011;12319;49.204;8.116;2023-04-24T04:14:57;4.80;;;4.03;;
24163;SDS011;12319;49.204;8.116;2023-04-24T04:17:23;4.53;;;3.63;;
24163;SDS011;12319;49.204;8.116;2023-04-24T04:19:48;4.70;;;3.70;;
24163;SDS011;12319;49.204;8.116;2023-04-24T04:22:14;4.68;;;3.78;;
24163;SDS011;12319;49.204;8.116;2023-04-24T04:24:39;4.90;;;3.90;;
24163;SDS011;12319;49.204;8.116;2023-04-24T04:27:05;7.07;;;4.05;;
24163;SDS011;12319;49.204;8.116;2023-04-24T04:29:31;4.93;;;3.78;;
24163;SDS011;12319;49.204;8.116;2023-04-24T04:31:58;4.78;;;3.88;;
24163;SDS011;12319;49.204;8.116;2023-04-24T04:34:23;4.57;;;3.60;;
24163;SDS011;12319;49.204;8.116;2023-04-24T04:36:49;4.90;;;4.00;;
24163;SDS011;12319;49.204;8.116;2023-04-24T04:39:15;4.95;;;3.88;;
24163;SDS011;12319;49.204;8.116;2023-04-24T04:41:41;5.25;;;3.90;;
24163;SDS011;12319;49.204;8.116;2023-04-24T04:44:07;6.17;;;4.33;;
24163;SDS011;12319;49.204;8.116;2023-04-24T04:46:33;5.25;;;4.15;;
24163;SDS011;12319;49.204;8.116;2023-04-24T04:49:01;4.95;;;4.00;;
24163;SDS011;12319;49.204;8.116;2023-04-24T04:51:27;5.23;;;4.30;;
24163;SDS011;12319;49.204;8.116;2023-04-24T04:53:53;5.10;;;4.25;;
24163;SDS011;12319;49.204;8.116;2023-04-24T04:56:18;5.43;;;4.40;;
24163;SDS011;12319;49.204;8.116;2023-04-24T04:58:44;5.35;;;4.13;;
24163;SDS011;12319;49.204;8.116;2023-04-24T05:01:09;5.10;;;4.30;;
24163;SDS011;12319;49.204;8.116;2023-04-24T05:03:35;7.40;;;4.28;;
24163;SDS011;12319;49.204;8.116;2023-04-24T05:06:01;5.40;;;4.15;;
24163;SDS011;12319;49.204;8.116;2023-04-24T05:08:27;5.25;;;3.85;;
24163;SDS011;12319;49.204;8.116;2023-04-24T05:10:53;5.00;;;4.13;;
24163;SDS011;12319;49.204;8.116;2023-04-24T05:13:19;4.83;;;3.87;;
24163;SDS011;12319;49.204;8.116;2023-04-24T05:15:45;5.20;;;4.35;;
24163;SDS011;12319;49.204;8.116;2023-04-24T05:18:10;5.07;;;4.30;;
24163;SDS011;12319;49.204;8.116;2023-04-24T05:20:36;4.88;;;3.83;;
24163;SDS011;12319;49.204;8.116;2023-04-24T05:23:01;5.20;;;4.20;;
24163;SDS011;12319;49.204;8.116;2023-04-24T05:25:27;5.83;;;4.57;;
24163;SDS011;12319;49.204;8.116;2023-04-24T05:27:52;4.80;;;3.60;;
24163;SDS011;12319;49.204;8.116;2023-04-24T05:30:18;5.45;;;4.22;;
24163;SDS011;12319;49.204;8.116;2023-04-24T05:32:44;5.32;;;4.35;;
24163;SDS011;12319;49.204;8.116;2023-04-24T05:35:10;5.50;;;4.17;;
24163;SDS011;12319;49.204;8.116;2023-04-24T05:37:36;5.20;;;4.10;;
24163;SDS011;12319;49.204;8.116;2023-04-24T05:40:02;5.10;;;4.40;;
24163;SDS011;12319;49.204;8.116;2023-04-24T05:42:30;4.97;;;3.90;;
24163;SDS011;12319;49.204;8.116;2023-04-24T05:44:55;4.72;;;3.95;;
24163;SDS011;12319;49.204;8.116;2023-04-24T05:47:21;5.67;;;4.20;;
24163;SDS011;12319;49.204;8.116;2023-04-24T05:49:47;4.90;;;4.00;;
24163;SDS011;12319;49.204;8.116;2023-04-24T05:52:12;6.22;;;4.15;;
24163;SDS011;12319;49.204;8.116;2023-04-24T05:54:38;5.30;;;4.38;;
24163;SDS011;12319;49.204;8.116;2023-04-24T05:57:04;6.47;;;4.40;;
24163;SDS011;12319;49.204;8.116;2023-04-24T05:59:32;4.90;;;4.18;;
24163;SDS011;12319;49.204;8.116;2023-04-24T06:01:59;5.07;;;3.80;;
24163;SDS011;12319;49.204;8.116;2023-04-24T06:04:24;4.80;;;3.97;;
24163;SDS011;12319;49.204;8.116;2023-04-24T06:06:50;5.20;;;4.10;;
24163;SDS011;12319;49.204;8.116;2023-04-24T06:09:20;5.10;;;4.10;;
24163;SDS011;12319;49.204;8.116;2023-04-24T06:11:46;5.40;;;4.10;;
24163;SDS011;12319;49.204;8.116;2023-04-24T06:14:12;5.37;;;4.40;;
24163;SDS011;12319;49.204;8.116;2023-04-24T06:16:37;5.50;;;4.40;;
24163;SDS011;12319;49.204;8.116;2023-04-24T06:19:04;5.00;;;4.10;;
24163;SDS011;12319;49.204;8.116;2023-04-24T06:21:30;4.80;;;3.90;;
24163;SDS011;12319;49.204;8.116;2023-04-24T06:23:56;5.77;;;3.50;;
24163;SDS011;12319;49.204;8.116;2023-04-24T06:26:23;4.70;;;3.67;;
24163;SDS011;12319;49.204;8.116;2023-04-24T06:28:50;5.15;;;4.05;;
24163;SDS011;12319;49.204;8.116;2023-04-24T06:31:16;5.10;;;4.10;;
24163;SDS011;12319;49.204;8.116;2023-04-24T06:33:42;4.90;;;4.00;;
24163;SDS011;12319;49.204;8.116;2023-04-24T06:36:08;4.80;;;3.83;;
24163;SDS011;12319;49.204;8.116;2023-04-24T06:38:33;5.50;;;3.90;;
24163;SDS011;12319;49.204;8.116;2023-04-24T06:40:59;4.72;;;3.83;;
24163;SDS011;12319;49.204;8.116;2023-04-24T06:43:25;4.47;;;3.50;;
24163;SDS011;12319;49.204;8.116;2023-04-24T06:45:50;4.43;;;3.40;;
24163;SDS011;12319;49.204;8.116;2023-04-24T06:48:16;4.80;;;3.90;;
24163;SDS011;12319;49.204;8.116;2023-04-24T06:50:41;4.57;;;3.67;;
24163;SDS011;12319;49.204;8.116;2023-04-24T06:53:07;5.78;;;4.18;;
24163;SDS011;12319;49.204;8.116;2023-04-24T06:55:33;5.40;;;4.10;;
24163;SDS011;12319;49.204;8.116;2023-04-24T06:58:00;5.10;;;4.13;;
24163;SDS011;12319;49.204;8.116;2023-04-24T07:00:26;4.67;;;3.77;;
24163;SDS011;12319;49.204;8.116;2023-04-24T07:02:51;4.88;;;3.97;;
24163;SDS011;12319;49.204;8.116;2023-04-24T07:05:17;4.83;;;3.80;;
24163;SDS011;12319;49.204;8.116;2023-04-24T07:07:45;4.80;;;3.80;;
24163;SDS011;12319;49.204;8.116;2023-04-24T07:10:11;4.60;;;3.75;;
24163;SDS011;12319;49.204;8.116;2023-04-24T07:12:38;4.60;;;3.60;;
24163;SDS011;12319;49.204;8.116;2023-04-24T07:15:03;4.70;;;3.80;;
24163;SDS011;12319;49.204;8.116;2023-04-24T07:17:30;5.18;;;4.30;;
24163;SDS011;12319;49.204;8.116;2023-04-24T07:19:56;4.60;;;3.70;;
24163;SDS011;12319;49.204;8.116;2023-04-24T07:22:21;4.50;;;3.57;;
24163;SDS011;12319;49.204;8.116;2023-04-24T07:24:47;4.60;;;3.53;;
24163;SDS011;12319;49.204;8.116;2023-04-24T07:27:13;5.03;;;3.67;;
24163;SDS011;12319;49.204;8.116;2023-04-24T07:29:39;4.60;;;3.80;;
24163;SDS011;12319;49.204;8.116;2023-04-24T07:32:05;4.80;;;4.13;;
24163;SDS011;12319;49.204;8.116;2023-04-24T07:34:31;4.80;;;4.10;;
24163;SDS011;12319;49.204;8.116;2023-04-24T07:36:56;4.70;;;3.87;;
24163;SDS011;12319;49.204;8.116;2023-04-24T07:39:22;4.90;;;4.20;;
24163;SDS011;12319;49.204;8.116;2023-04-24T07:41:48;4.70;;;3.35;;
24163;SDS011;12319;49.204;8.116;2023-04-24T07:44:14;4.73;;;3.67;;
24163;SDS011;12319;49.204;8.116;2023-04-24T07:46:40;5.67;;;3.50;;
24163;SDS011;12319;49.204;8.116;2023-04-24T07:49:05;4.70;;;3.42;;
24163;SDS011;12319;49.204;8.116;2023-04-24T07:51:31;4.60;;;3.40;;
24163;SDS011;12319;49.204;8.116;2023-04-24T07:53:59;5.10;;;3.75;;
24163;SDS011;12319;49.204;8.116;2023-04-24T07:56:25;5.65;;;4.10;;
24163;SDS011;12319;49.204;8.116;2023-04-24T07:58:50;5.20;;;3.87;;
24163;SDS011;12319;49.204;8.116;2023-04-24T08:01:16;4.63;;;3.83;;
24163;SDS011;12319;49.204;8.116;2023-04-24T08:03:41;5.55;;;4.10;;
24163;SDS011;12319;49.204;8.116;2023-04-24T08:06:07;5.00;;;4.00;;
24163;SDS011;12319;49.204;8.116;2023-04-24T08:08:32;4.87;;;3.97;;
24163;SDS011;12319;49.204;8.116;2023-04-24T08:10:58;5.53;;;4.45;;
24163;SDS011;12319;49.204;8.116;2023-04-24T08:13:24;5.17;;;3.90;;
24163;SDS011;12319;49.204;8.116;2023-04-24T08:15:49;5.20;;;4.40;;
24163;SDS011;12319;49.204;8.116;2023-04-24T08:18:15;5.67;;;4.10;;
24163;SDS011;12319;49.204;8.116;2023-04-24T08:20:41;5.50;;;4.23;;
24163;SDS011;12319;49.204;8.116;2023-04-24T08:23:07;4.55;;;3.25;;
24163;SDS011;12319;49.204;8.116;2023-04-24T08:25:32;5.15;;;4.05;;
24163;SDS011;12319;49.204;8.116;2023-04-24T08:28:00;4.70;;;4.05;;
24163;SDS011;12319;49.204;8.116;2023-04-24T08:30:26;5.30;;;4.20;;
24163;SDS011;12319;49.204;8.116;2023-04-24T08:32:53;4.95;;;3.80;;
24163;SDS011;12319;49.204;8.116;2023-04-24T08:35:18;4.80;;;3.90;;
24163;SDS011;12319;49.204;8.116;2023-04-24T08:37:44;4.70;;;3.58;;
24163;SDS011;12319;49.204;8.116;2023-04-24T08:40:14;4.50;;;3.50;;
24163;SDS011;12319;49.204;8.116;2023-04-24T08:42:41;4.60;;;3.60;;
24163;SDS011;12319;49.204;8.116;2023-04-24T08:45:08;4.30;;;3.25;;
24163;SDS011;12319;49.204;8.116;2023-04-24T08:47:35;4.40;;;3.40;;
24163;SDS011;12319;49.204;8.116;2023-04-24T08:50:02;4.57;;;3.67;;
24163;SDS011;12319;49.204;8.116;2023-04-24T08:52:30;5.70;;;3.58;;
24163;SDS011;12319;49.204;8.116;2023-04-24T08:54:57;4.63;;;3.75;;
24163;SDS011;12319;49.204;8.116;2023-04-24T08:57:25;6.65;;;4.20;;
24163;SDS011;12319;49.204;8.116;2023-04-24T08:59:51;5.18;;;3.80;;
24163;SDS011;12319;49.204;8.116;2023-04-24T09:02:18;4.97;;;4.15;;
24163;SDS011;12319;49.204;8.116;2023-04-24T09:04:44;5.25;;;4.10;;
24163;SDS011;12319;49.204;8.116;2023-04-24T09:07:11;5.10;;;4.30;;
24163;SDS011;12319;49.204;8.116;2023-04-24T09:09:39;5.30;;;4.20;;
24163;SDS011;12319;49.204;8.116;2023-04-24T09:12:06;7.35;;;4.20;;
24163;SDS011;12319;49.204;8.116;2023-04-24T09:14:34;5.22;;;4.22;;
24163;SDS011;12319;49.204;8.116;2023-04-24T09:17:01;5.20;;;4.10;;
24163;SDS011;12319;49.204;8.116;2023-04-24T09:19:27;5.38;;;4.10;;
24163;SDS011;12319;49.204;8.116;2023-04-24T09:21:53;6.13;;;4.30;;
24163;SDS011;12319;49.204;8.116;2023-04-24T09:24:20;6.70;;;4.70;;
24163;SDS011;12319;49.204;8.116;2023-04-24T09:26:55;5.45;;;4.57;;
24163;SDS011;12319;49.204;8.116;2023-04-24T09:29:23;5.10;;;4.00;;
24163;SDS011;12319;49.204;8.116;2023-04-24T09:31:49;4.90;;;4.00;;
24163;SDS011;12319;49.204;8.116;2023-04-24T09:34:18;5.47;;;4.10;;
24163;SDS011;12319;49.204;8.116;2023-04-24T09:36:46;5.47;;;4.20;;
24163;SDS011;12319;49.204;8.116;2023-04-24T09:39:13;5.20;;;4.22;;
24163;SDS011;12319;49.204;8.116;2023-04-24T09:41:47;6.45;;;4.68;;
24163;SDS011;12319;49.204;8.116;2023-04-24T09:44:18;5.78;;;4.15;;
24163;SDS011;12319;49.204;8.116;2023-04-24T09:46:51;5.20;;;3.90;;
24163;SDS011;12319;49.204;8.116;2023-04-24T09:49:28;5.53;;;4.05;;
24163;SDS011;12319;49.204;8.116;2023-04-24T09:52:05;4.75;;;3.80;;
24163;SDS011;12319;49.204;8.116;2023-04-24T09:54:33;4.68;;;3.47;;
24163;SDS011;12319;49.204;8.116;2023-04-24T09:56:58;4.90;;;3.80;;
24163;SDS011;12319;49.204;8.116;2023-04-24T09:59:27;4.82;;;3.80;;
24163;SDS011;12319;49.204;8.116;2023-04-24T10:01:54;4.88;;;3.83;;
24163;SDS011;12319;49.204;8.116;2023-04-24T10:06:52;4.80;;;3.70;;
24163;SDS011;12319;49.204;8.116;2023-04-24T10:09:24;4.63;;;3.70;;
24163;SDS011;12319;49.204;8.116;2023-04-24T10:11:51;4.70;;;3.72;;
24163;SDS011;12319;49.204;8.116;2023-04-24T10:14:19;5.50;;;3.78;;
24163;SDS011;12319;49.204;8.116;2023-04-24T10:16:46;4.50;;;3.50;;
24163;SDS011;12319;49.204;8.116;2023-04-24T10:19:16;5.68;;;3.83;;
24163;SDS011;12319;49.204;8.116;2023-04-24T10:21:45;4.53;;;3.63;;
24163;SDS011;12319;49.204;8.116;2023-04-24T10:24:12;4.70;;;3.55;;
24163;SDS011;12319;49.204;8.116;2023-04-24T10:26:42;5.05;;;3.63;;
24163;SDS011;12319;49.204;8.116;2023-04-24T10:29:09;5.32;;;4.00;;
24163;SDS011;12319;49.204;8.116;2023-04-24T10:31:37;5.45;;;3.92;;
24163;SDS011;12319;49.204;8.116;2023-04-24T10:34:06;4.90;;;3.90;;
24163;SDS011;12319;49.204;8.116;2023-04-24T10:36:34;4.50;;;3.65;;
24163;SDS011;12319;49.204;8.116;2023-04-24T10:39:01;4.70;;;3.88;;
24163;SDS011;12319;49.204;8.116;2023-04-24T10:41:29;4.60;;;3.70;;
24163;SDS011;12319;49.204;8.116;2023-04-24T10:44:04;5.25;;;3.92;;
24163;SDS011;12319;49.204;8.116;2023-04-24T10:46:30;5.57;;;4.00;;
24163;SDS011;12319;49.204;8.116;2023-04-24T10:48:55;5.22;;;4.30;;
24163;SDS011;12319;49.204;8.116;2023-04-24T10:51:42;5.18;;;4.00;;
24163;SDS011;12319;49.204;8.116;2023-04-24T10:54:28;5.40;;;4.07;;
24163;SDS011;12319;49.204;8.116;2023-04-24T10:59:45;5.10;;;4.03;;
24163;SDS011;12319;49.204;8.116;2023-04-24T11:02:14;6.95;;;4.40;;
24163;SDS011;12319;49.204;8.116;2023-04-24T11:04:43;4.65;;;3.55;;
24163;SDS011;12319;49.204;8.116;2023-04-24T11:07:10;4.93;;;4.05;;
24163;SDS011;12319;49.204;8.116;2023-04-24T11:09:36;4.70;;;3.80;;
24163;SDS011;12319;49.204;8.116;2023-04-24T11:12:03;4.80;;;3.95;;
24163;SDS011;12319;49.204;8.116;2023-04-24T11:17:28;5.60;;;3.97;;
24163;SDS011;12319;49.204;8.116;2023-04-24T11:20:04;6.25;;;4.32;;
24163;SDS011;12319;49.204;8.116;2023-04-24T11:22:32;6.45;;;4.45;;
24163;SDS011;12319;49.204;8.116;2023-04-24T11:25:03;5.65;;;4.07;;
24163;SDS011;12319;49.204;8.116;2023-04-24T11:27:30;7.05;;;4.60;;
24163;SDS011;12319;49.204;8.116;2023-04-24T11:32:28;5.80;;;4.43;;
24163;SDS011;12319;49.204;8.116;2023-04-24T11:34:55;5.55;;;4.22;;
24163;SDS011;12319;49.204;8.116;2023-04-24T11:37:38;5.10;;;4.10;;
24163;SDS011;12319;49.204;8.116;2023-04-24T11:40:05;5.63;;;3.90;;
24163;SDS011;12319;49.204;8.116;2023-04-24T11:42:36;5.63;;;3.80;;
24163;SDS011;12319;49.204;8.116;2023-04-24T11:45:07;5.82;;;4.32;;
24163;SDS011;12319;49.204;8.116;2023-04-24T11:47:37;5.63;;;4.00;;
24163;SDS011;12319;49.204;8.116;2023-04-24T11:50:04;5.75;;;4.20;;
24163;SDS011;12319;49.204;8.116;2023-04-24T11:52:31;6.05;;;4.10;;
24163;SDS011;12319;49.204;8.116;2023-04-24T11:54:56;5.00;;;3.78;;
24163;SDS011;12319;49.204;8.116;2023-04-24T11:57:24;5.28;;;4.10;;
24163;SDS011;12319;49.204;8.116;2023-04-24T11:59:52;5.57;;;4.07;;
24163;SDS011;12319;49.204;8.116;2023-04-24T12:02:24;5.65;;;3.95;;
24163;SDS011;12319;49.204;8.116;2023-04-24T12:04:52;5.28;;;4.00;;
24163;SDS011;12319;49.204;8.116;2023-04-24T12:07:18;5.27;;;4.27;;
24163;SDS011;12319;49.204;8.116;2023-04-24T12:09:45;5.53;;;4.05;;
24163;SDS011;12319;49.204;8.116;2023-04-24T12:12:30;5.32;;;4.03;;
24163;SDS011;12319;49.204;8.116;2023-04-24T12:14:56;5.00;;;3.80;;
24163;SDS011;12319;49.204;8.116;2023-04-24T12:17:27;5.97;;;4.70;;
24163;SDS011;12319;49.204;8.116;2023-04-24T12:19:57;5.07;;;4.03;;
24163;SDS011;12319;49.204;8.116;2023-04-24T12:22:25;5.88;;;4.30;;
24163;SDS011;12319;49.204;8.116;2023-04-24T12:24:57;6.40;;;4.30;;
24163;SDS011;12319;49.204;8.116;2023-04-24T12:27:31;5.20;;;3.90;;
24163;SDS011;12319;49.204;8.116;2023-04-24T12:30:03;5.50;;;4.10;;
24163;SDS011;12319;49.204;8.116;2023-04-24T12:32:29;5.35;;;3.60;;
24163;SDS011;12319;49.204;8.116;2023-04-24T12:34:55;5.63;;;4.60;;
24163;SDS011;12319;49.204;8.116;2023-04-24T12:37:25;5.28;;;3.88;;
24163;SDS011;12319;49.204;8.116;2023-04-24T12:40:01;6.03;;;4.30;;
24163;SDS011;12319;49.204;8.116;2023-04-24T12:42:32;5.47;;;4.13;;
24163;SDS011;12319;49.204;8.116;2023-04-24T12:44:59;4.90;;;3.88;;
24163;SDS011;12319;49.204;8.116;2023-04-24T12:47:29;7.20;;;4.13;;
24163;SDS011;12319;49.204;8.116;2023-04-24T12:49:56;5.60;;;4.10;;
24163;SDS011;12319;49.204;8.116;2023-04-24T12:52:22;4.57;;;3.37;;
24163;SDS011;12319;49.204;8.116;2023-04-24T12:54:49;5.25;;;4.07;;
24163;SDS011;12319;49.204;8.116;2023-04-24T12:57:16;5.20;;;4.00;;
24163;SDS011;12319;49.204;8.116;2023-04-24T12:59:42;5.35;;;3.85;;
24163;SDS011;12319;49.204;8.116;2023-04-24T13:02:08;5.55;;;4.07;;
24163;SDS011;12319;49.204;8.116;2023-04-24T13:04:34;5.10;;;3.53;;
24163;SDS011;12319;49.204;8.116;2023-04-24T13:07:00;4.75;;;3.58;;
24163;SDS011;12319;49.204;8.116;2023-04-24T13:09:26;5.07;;;3.67;;
24163;SDS011;12319;49.204;8.116;2023-04-24T13:11:51;4.97;;;3.80;;
24163;SDS011;12319;49.204;8.116;2023-04-24T13:14:17;5.40;;;4.00;;
24163;SDS011;12319;49.204;8.116;2023-04-24T13:16:42;6.03;;;4.40;;
24163;SDS011;12319;49.204;8.116;2023-04-24T13:19:08;5.73;;;3.90;;
24163;SDS011;12319;49.204;8.116;2023-04-24T13:21:33;6.35;;;4.50;;
24163;SDS011;12319;49.204;8.116;2023-04-24T13:23:59;6.57;;;4.07;;
24163;SDS011;12319;49.204;8.116;2023-04-24T13:26:24;5.10;;;3.80;;
24163;SDS011;12319;49.204;8.116;2023-04-24T13:28:50;5.05;;;3.78;;
24163;SDS011;12319;49.204;8.116;2023-04-24T13:31:16;5.87;;;4.30;;
24163;SDS011;12319;49.204;8.116;2023-04-24T13:33:41;5.68;;;4.05;;
24163;SDS011;12319;49.204;8.116;2023-04-24T13:36:07;5.10;;;4.20;;
24163;SDS011;12319;49.204;8.116;2023-04-24T13:38:33;5.40;;;3.80;;
24163;SDS011;12319;49.204;8.116;2023-04-24T13:40:59;4.50;;;3.40;;
24163;SDS011;12319;49.204;8.116;2023-04-24T13:43:24;4.78;;;3.72;;
24163;SDS011;12319;49.204;8.116;2023-04-24T13:45:50;5.43;;;4.05;;
24163;SDS011;12319;49.204;8.116;2023-04-24T13:48:16;4.90;;;3.83;;
24163;SDS011;12319;49.204;8.116;2023-04-24T13:50:43;5.40;;;3.90;;
24163;SDS011;12319;49.204;8.116;2023-04-24T13:53:09;5.88;;;4.30;;
24163;SDS011;12319;49.204;8.116;2023-04-24T13:55:35;5.53;;;3.85;;
24163;SDS011;12319;49.204;8.116;2023-04-24T13:58:01;4.80;;;3.60;;
24163;SDS011;12319;49.204;8.116;2023-04-24T14:00:27;5.68;;;3.97;;
24163;SDS011;12319;49.204;8.116;2023-04-24T14:02:53;5.63;;;3.70;;
24163;SDS011;12319;49.204;8.116;2023-04-24T14:05:19;4.80;;;3.88;;
24163;SDS011;12319;49.204;8.116;2023-04-24T14:07:45;5.07;;;3.65;;
24163;SDS011;12319;49.204;8.116;2023-04-24T14:10:11;5.20;;;3.88;;
24163;SDS011;12319;49.204;8.116;2023-04-24T14:12:37;5.07;;;3.90;;
24163;SDS011;12319;49.204;8.116;2023-04-24T14:15:03;5.00;;;3.60;;
24163;SDS011;12319;49.204;8.116;2023-04-24T14:17:29;5.80;;;3.90;;
24163;SDS011;12319;49.204;8.116;2023-04-24T14:19:55;5.57;;;4.45;;
24163;SDS011;12319;49.204;8.116;2023-04-24T14:22:21;5.75;;;3.97;;
24163;SDS011;12319;49.204;8.116;2023-04-24T14:24:47;6.40;;;3.60;;
24163;SDS011;12319;49.204;8.116;2023-04-24T14:27:13;5.60;;;3.85;;
24163;SDS011;12319;49.204;8.116;2023-04-24T14:29:38;6.63;;;3.80;;
24163;SDS011;12319;49.204;8.116;2023-04-24T14:32:04;5.00;;;3.70;;
24163;SDS011;12319;49.204;8.116;2023-04-24T14:34:30;6.32;;;3.72;;
24163;SDS011;12319;49.204;8.116;2023-04-24T14:36:55;5.18;;;3.78;;
24163;SDS011;12319;49.204;8.116;2023-04-24T14:39:21;4.97;;;3.83;;
24163;SDS011;12319;49.204;8.116;2023-04-24T14:41:47;5.43;;;3.70;;
24163;SDS011;12319;49.204;8.116;2023-04-24T14:44:12;5.47;;;3.88;;
24163;SDS011;12319;49.204;8.116;2023-04-24T14:46:38;5.10;;;3.97;;
24163;SDS011;12319;49.204;8.116;2023-04-24T14:49:03;5.60;;;3.90;;
24163;SDS011;12319;49.204;8.116;2023-04-24T14:51:29;5.13;;;3.90;;
24163;SDS011;12319;49.204;8.116;2023-04-24T14:53:56;5.05;;;3.80;;
24163;SDS011;12319;49.204;8.116;2023-04-24T14:56:21;5.43;;;3.78;;